createdAt,value
2022-11-15T00:01:59.050Z,3.83
2022-11-15T00:04:45.262Z,3.65
2022-11-15T00:07:54.759Z,4.00
2022-11-15T00:10:39.478Z,3.97
2022-11-15T00:13:26.089Z,3.58
2022-11-15T00:16:12.491Z,3.88
2022-11-15T00:18:59.160Z,3.90
2022-11-15T00:21:45.527Z,3.83
2022-11-15T00:24:31.885Z,3.58
2022-11-15T00:27:19.655Z,3.60
2022-11-15T00:30:07.042Z,3.83
2022-11-15T00:32:54.071Z,3.70
2022-11-15T00:35:40.883Z,3.83
2022-11-15T00:38:27.394Z,3.72
2022-11-15T00:41:13.670Z,3.70
2022-11-15T00:44:01.557Z,3.53
2022-11-15T00:46:48.095Z,3.58
2022-11-15T00:49:34.473Z,3.58
2022-11-15T00:52:20.899Z,3.70
2022-11-15T00:55:07.944Z,3.55
2022-11-15T00:57:54.221Z,3.40
2022-11-15T01:00:41.991Z,3.92
2022-11-15T01:03:28.195Z,3.63
2022-11-15T01:06:14.561Z,3.90
2022-11-15T01:09:01.043Z,3.60
2022-11-15T01:11:47.617Z,3.40
2022-11-15T01:14:34.027Z,3.70
2022-11-15T01:17:21.559Z,3.85
2022-11-15T01:20:09.277Z,3.60
2022-11-15T01:22:55.859Z,3.60
2022-11-15T01:25:42.019Z,3.50
2022-11-15T01:28:32.089Z,3.67
2022-11-15T01:31:19.758Z,3.58
2022-11-15T01:34:07.591Z,3.67
2022-11-15T01:36:54.041Z,3.65
2022-11-15T01:39:40.628Z,3.42
2022-11-15T01:42:26.917Z,3.47
2022-11-15T01:45:14.636Z,3.53
2022-11-15T01:48:00.781Z,3.60
2022-11-15T01:50:48.419Z,3.90
2022-11-15T01:53:34.933Z,3.35
2022-11-15T01:56:23.902Z,3.80
2022-11-15T01:59:10.503Z,3.63
2022-11-15T02:01:56.790Z,3.55
2022-11-15T02:04:43.835Z,3.47
2022-11-15T02:07:31.633Z,3.65
2022-11-15T02:10:20.500Z,3.42
2022-11-15T02:13:06.710Z,3.35
2022-11-15T02:16:02.632Z,3.40
2022-11-15T02:18:51.267Z,3.42
2022-11-15T02:21:38.838Z,3.45
2022-11-15T02:24:51.976Z,3.40
2022-11-15T02:28:03.245Z,3.40
2022-11-15T02:30:52.008Z,3.30
2022-11-15T02:33:43.569Z,3.50
2022-11-15T02:36:36.224Z,3.40
2022-11-15T02:39:25.273Z,3.42
2022-11-15T02:42:27.232Z,3.60
2022-11-15T02:45:15.009Z,3.35
2022-11-15T02:48:02.622Z,3.80
2022-11-15T02:50:48.930Z,3.50
2022-11-15T02:53:35.421Z,3.67
2022-11-15T02:56:21.862Z,3.67
2022-11-15T02:59:18.402Z,3.58
2022-11-15T03:02:12.475Z,3.40
2022-11-15T03:05:00.707Z,3.45
2022-11-15T03:07:51.823Z,3.63
2022-11-15T03:10:44.108Z,3.40
2022-11-15T03:13:35.155Z,3.40
2022-11-15T03:16:22.572Z,3.30
2022-11-15T03:19:15.972Z,3.60
2022-11-15T03:22:05.578Z,3.60
2022-11-15T03:24:54.089Z,3.55
2022-11-15T03:27:41.849Z,3.53
2022-11-15T03:30:27.999Z,3.30
2022-11-15T03:33:14.392Z,3.45
2022-11-15T03:36:00.714Z,3.20
2022-11-15T03:38:48.309Z,3.67
2022-11-15T03:41:37.679Z,3.33
2022-11-15T03:44:30.708Z,3.40
2022-11-15T03:47:19.493Z,3.35
2022-11-15T03:50:09.068Z,3.28
2022-11-15T03:52:55.846Z,3.60
2022-11-15T03:55:43.308Z,3.10
2022-11-15T03:58:29.704Z,3.47
2022-11-15T04:01:16.039Z,3.67
2022-11-15T04:04:02.310Z,3.30
2022-11-15T04:06:48.846Z,3.30
2022-11-15T04:09:55.176Z,3.20
2022-11-15T04:12:44.477Z,3.45
2022-11-15T04:15:30.904Z,3.30
2022-11-15T04:18:17.415Z,3.55
2022-11-15T04:21:21.448Z,3.42
2022-11-15T04:24:14.023Z,3.25
2022-11-15T04:27:00.419Z,3.22
2022-11-15T04:29:48.178Z,3.40
2022-11-15T04:32:34.650Z,3.47
2022-11-15T04:35:21.037Z,3.17
2022-11-15T04:38:08.463Z,3.22
2022-11-15T04:40:54.849Z,3.25
2022-11-15T04:43:41.222Z,3.47
2022-11-15T04:46:29.034Z,3.60
2022-11-15T04:49:15.457Z,3.50
2022-11-15T04:52:01.651Z,3.35
2022-11-15T04:54:48.126Z,3.28
2022-11-15T04:57:34.527Z,3.38
2022-11-15T05:00:21.156Z,3.40
2022-11-15T05:03:26.228Z,3.35
2022-11-15T05:06:12.612Z,3.42
2022-11-15T05:08:59.148Z,3.30
2022-11-15T05:11:45.594Z,3.28
2022-11-15T05:14:32.204Z,3.13
2022-11-15T05:17:18.621Z,3.65
2022-11-15T05:20:07.427Z,3.50
2022-11-15T05:22:54.323Z,3.50
2022-11-15T05:25:40.611Z,3.40
2022-11-15T05:28:26.841Z,3.05
2022-11-15T05:31:14.294Z,3.45
2022-11-15T05:34:00.492Z,3.30
2022-11-15T05:36:48.279Z,3.30
2022-11-15T05:39:34.606Z,3.58
2022-11-15T05:42:21.061Z,3.10
2022-11-15T05:45:08.507Z,3.10
2022-11-15T05:47:54.603Z,3.40
2022-11-15T05:50:41.470Z,3.38
2022-11-15T05:53:29.113Z,3.20
2022-11-15T05:56:15.899Z,3.40
2022-11-15T05:59:02.453Z,3.38
2022-11-15T06:01:48.893Z,3.22
2022-11-15T06:04:35.365Z,3.25
2022-11-15T06:07:21.582Z,3.47
2022-11-15T06:10:10.786Z,3.20
2022-11-15T06:13:00.300Z,3.50
2022-11-15T06:15:46.778Z,3.35
2022-11-15T06:18:34.282Z,3.08
2022-11-15T06:21:20.367Z,3.20
2022-11-15T06:24:07.387Z,3.33
2022-11-15T06:26:54.997Z,3.42
2022-11-15T06:29:41.117Z,3.35
2022-11-15T06:32:27.439Z,3.60
2022-11-15T06:35:14.000Z,3.10
2022-11-15T06:38:04.318Z,3.30
2022-11-15T06:40:50.691Z,3.17
2022-11-15T06:43:38.717Z,3.28
2022-11-15T06:46:24.958Z,3.28
2022-11-15T06:49:11.303Z,3.10
2022-11-15T06:51:57.630Z,3.35
2022-11-15T06:54:44.002Z,2.92
2022-11-15T06:57:30.398Z,3.28
2022-11-15T07:00:19.220Z,3.00
2022-11-15T07:03:05.728Z,3.25
2022-11-15T07:05:54.940Z,3.30
2022-11-15T07:08:42.518Z,3.28
2022-11-15T07:11:28.867Z,3.28
2022-11-15T07:14:15.395Z,3.08
2022-11-15T07:17:04.918Z,3.17
2022-11-15T07:19:51.195Z,3.50
2022-11-15T07:22:37.836Z,2.97
2022-11-15T07:25:24.174Z,3.10
2022-11-15T07:28:10.879Z,3.22
2022-11-15T07:30:57.410Z,3.20
2022-11-15T07:33:44.786Z,3.20
2022-11-15T07:36:31.163Z,2.85
2022-11-15T07:39:17.531Z,3.40
2022-11-15T07:42:21.582Z,3.15
2022-11-15T07:45:08.475Z,3.10
2022-11-15T07:47:55.125Z,3.17
2022-11-15T07:50:44.018Z,3.00
2022-11-15T07:53:30.437Z,3.05
2022-11-15T07:56:17.254Z,3.05
2022-11-15T07:59:03.500Z,2.90
2022-11-15T08:01:49.684Z,3.20
2022-11-15T08:04:36.006Z,3.03
2022-11-15T08:07:23.935Z,3.25
2022-11-15T08:10:10.451Z,3.25
2022-11-15T08:13:00.628Z,3.08
2022-11-15T08:15:46.891Z,2.97
2022-11-15T08:18:33.166Z,2.97
2022-11-15T08:21:20.824Z,2.90
2022-11-15T08:24:10.465Z,3.10
2022-11-15T08:26:57.034Z,3.00
2022-11-15T08:29:44.388Z,3.08
2022-11-15T08:32:30.745Z,3.22
2022-11-15T08:35:16.943Z,2.85
2022-11-15T08:38:03.208Z,2.83
2022-11-15T08:40:50.943Z,2.90
2022-11-15T08:43:37.349Z,2.95
2022-11-15T08:46:23.847Z,2.80
2022-11-15T08:49:10.240Z,2.80
2022-11-15T08:51:56.747Z,3.20
2022-11-15T08:54:43.164Z,3.20
2022-11-15T08:57:32.011Z,3.00
2022-11-15T09:00:20.672Z,2.80
2022-11-15T09:03:07.271Z,3.20
2022-11-15T09:05:56.563Z,2.92
2022-11-15T09:08:49.802Z,2.90
2022-11-15T09:11:36.094Z,3.10
2022-11-15T09:14:23.900Z,2.83
2022-11-15T09:17:10.450Z,2.90
2022-11-15T09:19:56.818Z,3.10
2022-11-15T09:22:43.320Z,3.00
2022-11-15T09:25:29.942Z,2.88
2022-11-15T09:28:16.026Z,3.28
2022-11-15T09:31:06.748Z,2.90
2022-11-15T09:33:53.738Z,3.20
2022-11-15T09:36:40.233Z,2.95
2022-11-15T09:39:26.631Z,2.80
2022-11-15T09:42:27.706Z,2.80
2022-11-15T09:45:18.783Z,3.00
2022-11-15T09:48:24.811Z,2.80
2022-11-15T09:51:23.366Z,2.90
2022-11-15T09:56:42.745Z,2.90
2022-11-15T09:59:20.416Z,2.80
2022-11-15T10:01:52.543Z,3.05
2022-11-15T10:04:22.054Z,3.00
2022-11-15T10:06:53.541Z,2.80
2022-11-15T10:09:24.063Z,2.78
2022-11-15T10:11:51.919Z,2.78
2022-11-15T10:14:21.102Z,3.00
2022-11-15T10:17:01.971Z,2.60
2022-11-15T10:19:35.211Z,3.00
2022-11-15T10:22:13.515Z,3.10
2022-11-15T10:24:43.493Z,2.78
2022-11-15T10:27:13.033Z,2.72
2022-11-15T10:29:45.073Z,2.80
2022-11-15T10:32:12.986Z,2.90
2022-11-15T10:34:42.074Z,2.90
2022-11-15T10:37:09.810Z,2.80
2022-11-15T10:39:37.479Z,2.80
2022-11-15T10:42:18.483Z,2.92
2022-11-15T10:44:46.644Z,2.67
2022-11-15T10:47:28.625Z,2.78
2022-11-15T10:50:02.570Z,2.83
2022-11-15T10:52:31.010Z,3.00
2022-11-15T10:55:01.091Z,3.00
2022-11-15T10:57:30.797Z,2.97
2022-11-15T11:00:00.133Z,2.78
2022-11-15T11:02:33.118Z,2.92
2022-11-15T11:05:02.383Z,2.55
2022-11-15T11:07:31.280Z,2.83
2022-11-15T11:10:00.801Z,2.83
2022-11-15T11:12:33.195Z,2.60
2022-11-15T11:15:02.565Z,2.85
2022-11-15T11:17:38.726Z,2.70
2022-11-15T11:20:11.861Z,2.90
2022-11-15T11:22:43.828Z,3.50
2022-11-15T11:25:20.304Z,5.05
2022-11-15T11:27:56.967Z,3.28
2022-11-15T11:30:26.882Z,3.72
2022-11-15T11:33:07.788Z,3.50
2022-11-15T11:35:41.452Z,4.22
2022-11-15T11:38:19.591Z,3.88
2022-11-15T11:41:00.032Z,3.92
2022-11-15T11:43:29.782Z,4.03
2022-11-15T11:46:11.841Z,3.78
2022-11-15T11:48:43.059Z,4.55
2022-11-15T11:51:16.345Z,4.47
2022-11-15T11:53:47.421Z,4.70
2022-11-15T11:56:21.490Z,4.75
2022-11-15T11:58:49.274Z,4.53
2022-11-15T12:01:18.187Z,7.90
2022-11-15T12:03:47.703Z,4.70
2022-11-15T12:06:22.406Z,4.75
2022-11-15T12:08:52.577Z,5.05
2022-11-15T12:11:22.786Z,4.38
2022-11-15T12:13:52.643Z,4.30
2022-11-15T12:16:22.195Z,4.10
2022-11-15T12:18:51.072Z,4.05
2022-11-15T12:21:28.347Z,4.50
2022-11-15T12:23:58.188Z,4.18
2022-11-15T12:26:28.085Z,10.75
2022-11-15T12:29:07.306Z,7.05
2022-11-15T12:31:39.036Z,7.40
2022-11-15T12:34:15.304Z,12.52
2022-11-15T12:36:44.946Z,134.70
2022-11-15T12:39:13.031Z,123.00
2022-11-15T12:41:41.081Z,126.43
2022-11-15T12:44:12.718Z,36.75
2022-11-15T12:47:02.474Z,138.40
2022-11-15T12:49:49.620Z,55.25
2022-11-15T12:52:18.676Z,56.58
2022-11-15T12:55:01.144Z,34.08
2022-11-15T12:57:34.511Z,25.27
2022-11-15T13:00:04.192Z,18.35
2022-11-15T13:02:32.390Z,17.52
2022-11-15T13:05:41.750Z,14.25
2022-11-15T13:08:10.763Z,14.73
2022-11-15T13:10:38.420Z,12.85
2022-11-15T13:13:06.629Z,12.10
2022-11-15T13:15:47.182Z,9.48
2022-11-15T13:18:39.781Z,12.18
2022-11-15T13:21:41.058Z,10.75
2022-11-15T13:24:14.570Z,8.57
2022-11-15T13:26:42.251Z,8.82
2022-11-15T13:29:20.015Z,8.18
2022-11-15T13:31:47.784Z,8.85
2022-11-15T13:34:49.413Z,9.07
2022-11-15T13:37:11.752Z,8.55
2022-11-15T13:39:40.780Z,8.48
2022-11-15T13:42:15.351Z,8.00
2022-11-15T13:44:43.055Z,7.55
2022-11-15T13:47:17.470Z,7.93
2022-11-15T13:49:45.169Z,8.07
2022-11-15T13:52:14.902Z,7.97
2022-11-15T13:54:45.290Z,9.13
2022-11-15T13:57:14.548Z,8.23
2022-11-15T13:59:47.171Z,7.28
2022-11-15T14:02:16.355Z,8.05
2022-11-15T14:04:48.163Z,9.65
2022-11-15T14:07:18.592Z,7.90
2022-11-15T14:09:47.829Z,7.88
2022-11-15T14:12:31.093Z,11.85
2022-11-15T14:14:59.246Z,8.93
2022-11-15T14:17:45.651Z,8.98
2022-11-15T14:20:22.486Z,8.20
2022-11-15T14:22:54.026Z,8.07
2022-11-15T14:25:23.927Z,7.55
2022-11-15T14:28:12.889Z,8.07
2022-11-15T14:30:40.771Z,8.95
2022-11-15T14:33:20.336Z,7.53
2022-11-15T14:35:48.089Z,8.75
2022-11-15T14:38:15.897Z,8.55
2022-11-15T14:40:45.009Z,7.50
2022-11-15T14:43:12.998Z,9.40
2022-11-15T14:45:40.670Z,9.57
2022-11-15T14:48:08.346Z,22.20
2022-11-15T14:50:36.182Z,9.80
2022-11-15T14:53:03.955Z,10.32
2022-11-15T14:55:33.417Z,9.70
2022-11-15T14:58:03.812Z,9.35
2022-11-15T15:00:35.235Z,9.18
2022-11-15T15:03:03.691Z,9.52
2022-11-15T15:05:33.319Z,18.33
2022-11-15T15:08:01.145Z,9.82
2022-11-15T15:10:39.931Z,9.40
2022-11-15T15:13:14.604Z,8.68
2022-11-15T15:15:42.277Z,8.65
2022-11-15T15:18:12.143Z,11.43
2022-11-15T15:20:40.977Z,11.02
2022-11-15T15:23:12.462Z,11.40
2022-11-15T15:25:42.848Z,11.07
2022-11-15T15:28:11.907Z,11.32
2022-11-15T15:30:39.609Z,10.50
2022-11-15T15:33:07.341Z,10.07
2022-11-15T15:35:36.078Z,9.77
2022-11-15T15:38:04.017Z,10.00
2022-11-15T15:40:32.821Z,10.65
2022-11-15T15:43:00.535Z,11.52
2022-11-15T15:45:30.481Z,11.80
2022-11-15T15:47:58.177Z,11.52
2022-11-15T15:50:27.637Z,10.63
2022-11-15T15:52:56.198Z,9.60
2022-11-15T15:55:24.049Z,10.43
2022-11-15T15:57:52.018Z,10.52
2022-11-15T16:00:20.241Z,10.82
2022-11-15T16:02:49.476Z,10.52
2022-11-15T16:05:18.222Z,10.80
2022-11-15T16:07:47.224Z,9.82
2022-11-15T16:10:23.296Z,9.45
2022-11-15T16:12:51.043Z,8.68
2022-11-15T16:15:19.027Z,9.20
2022-11-15T16:17:50.715Z,8.93
2022-11-15T16:20:33.979Z,9.18
2022-11-15T16:23:07.371Z,9.05
2022-11-15T16:25:38.951Z,9.48
2022-11-15T16:28:06.627Z,9.32
2022-11-15T16:30:34.402Z,8.75
2022-11-15T16:33:03.566Z,8.82
2022-11-15T16:35:31.272Z,8.77
2022-11-15T16:37:58.922Z,8.93
2022-11-15T16:40:30.826Z,8.23
2022-11-15T16:42:59.739Z,7.85
2022-11-15T16:45:29.169Z,8.43
2022-11-15T16:47:57.146Z,8.30
2022-11-15T16:50:26.981Z,7.90
2022-11-15T16:52:55.359Z,7.47
2022-11-15T16:55:23.695Z,7.57
2022-11-15T16:57:51.914Z,7.63
2022-11-15T17:00:20.279Z,8.45
2022-11-15T17:02:49.032Z,7.85
2022-11-15T17:05:20.070Z,7.32
2022-11-15T17:07:50.362Z,7.80
2022-11-15T17:10:18.521Z,8.00
2022-11-15T17:12:46.343Z,9.43
2022-11-15T17:15:14.287Z,7.82
2022-11-15T17:17:42.173Z,7.40
2022-11-15T17:20:14.820Z,7.40
2022-11-15T17:22:42.485Z,7.35
2022-11-15T17:25:11.767Z,6.93
2022-11-15T17:27:39.472Z,7.07
2022-11-15T17:30:08.511Z,7.40
2022-11-15T17:32:37.123Z,7.97
2022-11-15T17:35:11.983Z,6.85
2022-11-15T17:37:42.658Z,7.10
2022-11-15T17:40:12.397Z,7.10
2022-11-15T17:42:41.794Z,7.97
2022-11-15T17:45:10.597Z,6.93
2022-11-15T17:47:38.504Z,7.28
2022-11-15T17:50:06.774Z,7.85
2022-11-15T17:52:34.451Z,7.07
2022-11-15T17:55:02.123Z,7.18
2022-11-15T17:57:31.121Z,6.53
2022-11-15T17:59:58.809Z,6.93
2022-11-15T18:02:26.517Z,6.65
2022-11-15T18:04:54.218Z,6.80
2022-11-15T18:07:22.003Z,6.88
2022-11-15T18:09:49.723Z,6.57
2022-11-15T18:12:17.394Z,6.68
2022-11-15T18:14:46.438Z,6.47
2022-11-15T18:17:14.144Z,7.05
2022-11-15T18:19:41.971Z,6.53
2022-11-15T18:22:10.203Z,6.57
2022-11-15T18:24:38.448Z,5.93
2022-11-15T18:27:06.959Z,6.70
2022-11-15T18:29:37.926Z,5.90
2022-11-15T18:32:11.570Z,6.05
2022-11-15T18:34:39.410Z,6.35
2022-11-15T18:37:07.202Z,5.80
2022-11-15T18:39:35.101Z,5.97
2022-11-15T18:42:03.212Z,6.32
2022-11-15T18:44:31.104Z,5.85
2022-11-15T18:46:59.190Z,5.75
2022-11-15T18:49:28.187Z,5.55
2022-11-15T18:51:56.912Z,6.00
2022-11-15T18:54:30.585Z,5.45
2022-11-15T18:56:59.563Z,5.60
2022-11-15T18:59:28.054Z,5.32
2022-11-15T19:01:56.818Z,5.25
2022-11-15T19:04:24.798Z,5.70
2022-11-15T19:06:54.207Z,5.57
2022-11-15T19:09:22.066Z,5.53
2022-11-15T19:11:51.388Z,5.05
2022-11-15T19:14:24.112Z,5.45
2022-11-15T19:16:53.044Z,5.10
2022-11-15T19:19:22.226Z,5.60
2022-11-15T19:21:50.002Z,5.32
2022-11-15T19:24:18.993Z,4.68
2022-11-15T19:26:47.453Z,5.50
2022-11-15T19:29:15.390Z,5.07
2022-11-15T19:31:43.128Z,5.18
2022-11-15T19:34:11.141Z,5.35
2022-11-15T19:36:39.870Z,5.13
2022-11-15T19:39:09.910Z,5.03
2022-11-15T19:41:39.618Z,4.95
2022-11-15T19:44:07.444Z,4.70
2022-11-15T19:46:35.278Z,5.30
2022-11-15T19:49:03.101Z,5.20
2022-11-15T19:51:31.353Z,4.80
2022-11-15T19:54:03.447Z,5.03
2022-11-15T19:56:31.128Z,5.07
2022-11-15T19:59:00.290Z,5.25
2022-11-15T20:01:29.054Z,5.18
2022-11-15T20:03:58.769Z,5.53
2022-11-15T20:06:28.756Z,5.28
2022-11-15T20:08:56.778Z,4.97
2022-11-15T20:11:24.476Z,5.68
2022-11-15T20:13:52.191Z,5.32
2022-11-15T20:16:21.954Z,5.00
2022-11-15T20:18:50.287Z,5.30
2022-11-15T20:21:18.201Z,5.70
2022-11-15T20:23:46.094Z,6.00
2022-11-15T20:26:15.780Z,6.05
2022-11-15T20:28:44.603Z,5.88
2022-11-15T20:31:12.458Z,5.80
2022-11-15T20:33:41.534Z,5.82
2022-11-15T20:36:11.269Z,6.50
2022-11-15T20:38:38.960Z,5.97
2022-11-15T20:41:06.929Z,6.15
2022-11-15T20:43:34.673Z,6.68
2022-11-15T20:46:02.358Z,6.68
2022-11-15T20:48:30.410Z,6.13
2022-11-15T20:51:06.651Z,6.25
2022-11-15T20:53:34.827Z,6.35
2022-11-15T20:56:07.698Z,6.43
2022-11-15T20:58:35.925Z,6.90
2022-11-15T21:01:03.991Z,6.28
2022-11-15T21:03:31.993Z,6.10
2022-11-15T21:05:59.763Z,6.20
2022-11-15T21:08:48.744Z,6.18
2022-11-15T21:11:34.210Z,5.82
2022-11-15T21:14:06.294Z,6.45
2022-11-15T21:16:36.599Z,5.88
2022-11-15T21:19:04.621Z,5.65
2022-11-15T21:21:32.315Z,6.20
2022-11-15T21:24:02.906Z,5.47
2022-11-15T21:26:30.679Z,6.25
2022-11-15T21:28:58.664Z,6.10
2022-11-15T21:31:26.398Z,6.00
2022-11-15T21:33:54.069Z,5.63
2022-11-15T21:36:21.817Z,6.50
2022-11-15T21:38:49.462Z,6.13
2022-11-15T21:41:18.442Z,6.32
2022-11-15T21:43:46.087Z,6.35
2022-11-15T21:46:13.748Z,6.13
2022-11-15T21:48:41.462Z,6.15
2022-11-15T21:51:11.244Z,6.15
2022-11-15T21:53:38.907Z,5.80
2022-11-15T21:56:07.246Z,6.05
2022-11-15T21:58:36.579Z,6.03
2022-11-15T22:01:22.246Z,6.13
2022-11-15T22:03:50.011Z,6.15
2022-11-15T22:06:18.416Z,5.70
2022-11-15T22:08:46.372Z,6.13
2022-11-15T22:11:14.128Z,5.38
2022-11-15T22:13:43.226Z,5.70
2022-11-15T22:16:11.081Z,5.88
2022-11-15T22:18:39.204Z,5.80
2022-11-15T22:21:08.000Z,6.60
2022-11-15T22:23:36.155Z,6.05
2022-11-15T22:26:04.166Z,5.88
2022-11-15T22:28:32.195Z,5.63
2022-11-15T22:31:01.413Z,5.78
2022-11-15T22:33:30.024Z,6.18
2022-11-15T22:35:57.828Z,6.13
2022-11-15T22:38:25.618Z,6.10
2022-11-15T22:40:53.383Z,5.90
2022-11-15T22:43:22.067Z,6.18
2022-11-15T22:45:53.551Z,6.05
2022-11-15T22:48:23.461Z,6.40
2022-11-15T22:50:51.251Z,5.97
2022-11-15T22:53:19.041Z,6.30
2022-11-15T22:55:50.652Z,5.90
2022-11-15T22:58:18.346Z,5.78
2022-11-15T23:00:48.612Z,6.57
2022-11-15T23:03:16.376Z,6.57
2022-11-15T23:05:45.499Z,6.60
2022-11-15T23:08:13.359Z,6.47
2022-11-15T23:10:58.829Z,6.22
2022-11-15T23:13:27.368Z,6.60
2022-11-15T23:16:19.878Z,6.60
2022-11-15T23:18:47.569Z,6.43
2022-11-15T23:21:39.342Z,7.35
2022-11-15T23:24:06.329Z,6.82
2022-11-15T23:26:34.098Z,7.22
2022-11-15T23:29:01.783Z,6.80
2022-11-15T23:31:47.674Z,7.65
2022-11-15T23:34:22.139Z,7.38
2022-11-15T23:36:51.400Z,7.63
2022-11-15T23:39:19.128Z,7.78
2022-11-15T23:41:46.809Z,8.20
2022-11-15T23:44:14.699Z,8.75
2022-11-15T23:46:42.345Z,8.70
2022-11-15T23:49:09.993Z,8.48
2022-11-15T23:51:37.759Z,8.73
2022-11-15T23:54:07.007Z,9.02
2022-11-15T23:56:34.916Z,9.38
2022-11-15T23:59:03.149Z,9.80
